sensor_id;sensor_type;location;lat;lon;timestamp;P1;durP1;ratioP1;P2;durP2;ratioP2
15393;SDS011;7795;47.986;11.868;2022-07-17T00:00:26;1.67;;;1.57;;
15393;SDS011;7795;47.986;11.868;2022-07-17T00:02:53;1.30;;;1.13;;
15393;SDS011;7795;47.986;11.868;2022-07-17T00:05:19;1.63;;;1.53;;
15393;SDS011;7795;47.986;11.868;2022-07-17T00:07:45;1.20;;;1.10;;
15393;SDS011;7795;47.986;11.868;2022-07-17T00:10:13;1.40;;;1.30;;
15393;SDS011;7795;47.986;11.868;2022-07-17T00:12:39;2.20;;;1.30;;
15393;SDS011;7795;47.986;11.868;2022-07-17T00:15:05;3.17;;;1.20;;
15393;SDS011;7795;47.986;11.868;2022-07-17T00:17:32;1.47;;;1.20;;
15393;SDS011;7795;47.986;11.868;2022-07-17T00:19:59;14.70;;;12.37;;
15393;SDS011;7795;47.986;11.868;2022-07-17T00:22:25;34.90;;;31.20;;
15393;SDS011;7795;47.986;11.868;2022-07-17T00:24:51;26.20;;;23.40;;
15393;SDS011;7795;47.986;11.868;2022-07-17T00:27:17;18.23;;;15.97;;
15393;SDS011;7795;47.986;11.868;2022-07-17T00:29:43;13.50;;;11.93;;
15393;SDS011;7795;47.986;11.868;2022-07-17T00:32:09;11.53;;;10.20;;
15393;SDS011;7795;47.986;11.868;2022-07-17T00:34:36;5.10;;;4.40;;
15393;SDS011;7795;47.986;11.868;2022-07-17T00:37:01;3.37;;;2.83;;
15393;SDS011;7795;47.986;11.868;2022-07-17T00:39:27;3.80;;;1.83;;
15393;SDS011;7795;47.986;11.868;2022-07-17T00:41:53;2.17;;;1.80;;
15393;SDS011;7795;47.986;11.868;2022-07-17T00:44:19;1.60;;;1.30;;
15393;SDS011;7795;47.986;11.868;2022-07-17T00:46:45;1.40;;;1.30;;
15393;SDS011;7795;47.986;11.868;2022-07-17T00:49:11;1.60;;;1.50;;
15393;SDS011;7795;47.986;11.868;2022-07-17T00:51:38;1.53;;;1.27;;
15393;SDS011;7795;47.986;11.868;2022-07-17T00:54:04;2.57;;;1.47;;
15393;SDS011;7795;47.986;11.868;2022-07-17T00:56:30;1.57;;;1.30;;
15393;SDS011;7795;47.986;11.868;2022-07-17T00:58:58;1.83;;;1.50;;
15393;SDS011;7795;47.986;11.868;2022-07-17T01:01:25;1.93;;;1.20;;
15393;SDS011;7795;47.986;11.868;2022-07-17T01:03:50;3.67;;;1.43;;
15393;SDS011;7795;47.986;11.868;2022-07-17T01:06:16;1.60;;;1.43;;
15393;SDS011;7795;47.986;11.868;2022-07-17T01:08:44;1.93;;;1.50;;
15393;SDS011;7795;47.986;11.868;2022-07-17T01:11:10;2.40;;;1.50;;
15393;SDS011;7795;47.986;11.868;2022-07-17T01:13:36;1.43;;;1.33;;
15393;SDS011;7795;47.986;11.868;2022-07-17T01:16:02;3.10;;;1.57;;
15393;SDS011;7795;47.986;11.868;2022-07-17T01:18:28;1.90;;;1.43;;
15393;SDS011;7795;47.986;11.868;2022-07-17T01:20:54;1.70;;;1.50;;
15393;SDS011;7795;47.986;11.868;2022-07-17T01:23:21;1.30;;;1.20;;
15393;SDS011;7795;47.986;11.868;2022-07-17T01:25:47;1.87;;;1.40;;
15393;SDS011;7795;47.986;11.868;2022-07-17T01:28:13;1.50;;;1.40;;
15393;SDS011;7795;47.986;11.868;2022-07-17T01:30:44;2.57;;;1.20;;
15393;SDS011;7795;47.986;11.868;2022-07-17T01:33:12;1.23;;;1.10;;
15393;SDS011;7795;47.986;11.868;2022-07-17T01:35:38;1.33;;;1.20;;
15393;SDS011;7795;47.986;11.868;2022-07-17T01:38:03;1.70;;;1.53;;
15393;SDS011;7795;47.986;11.868;2022-07-17T01:40:31;1.87;;;1.63;;
15393;SDS011;7795;47.986;11.868;2022-07-17T01:42:56;1.80;;;1.60;;
15393;SDS011;7795;47.986;11.868;2022-07-17T01:45:22;1.70;;;1.60;;
15393;SDS011;7795;47.986;11.868;2022-07-17T01:47:48;1.67;;;1.40;;
15393;SDS011;7795;47.986;11.868;2022-07-17T01:50:14;2.60;;;1.80;;
15393;SDS011;7795;47.986;11.868;2022-07-17T01:52:40;1.50;;;1.40;;
15393;SDS011;7795;47.986;11.868;2022-07-17T01:55:09;1.60;;;1.50;;
15393;SDS011;7795;47.986;11.868;2022-07-17T01:57:37;2.50;;;1.70;;
15393;SDS011;7795;47.986;11.868;2022-07-17T02:00:04;2.33;;;1.40;;
15393;SDS011;7795;47.986;11.868;2022-07-17T02:02:31;2.00;;;1.70;;
15393;SDS011;7795;47.986;11.868;2022-07-17T02:04:57;1.67;;;1.57;;
15393;SDS011;7795;47.986;11.868;2022-07-17T02:07:23;1.90;;;1.70;;
15393;SDS011;7795;47.986;11.868;2022-07-17T02:09:49;2.00;;;1.80;;
15393;SDS011;7795;47.986;11.868;2022-07-17T02:12:15;2.23;;;1.53;;
15393;SDS011;7795;47.986;11.868;2022-07-17T02:14:42;2.30;;;1.80;;
15393;SDS011;7795;47.986;11.868;2022-07-17T02:17:08;2.00;;;1.43;;
15393;SDS011;7795;47.986;11.868;2022-07-17T02:19:34;1.77;;;1.67;;
15393;SDS011;7795;47.986;11.868;2022-07-17T02:22:00;2.33;;;2.13;;
15393;SDS011;7795;47.986;11.868;2022-07-17T02:24:25;1.70;;;1.60;;
15393;SDS011;7795;47.986;11.868;2022-07-17T02:26:51;2.53;;;1.90;;
15393;SDS011;7795;47.986;11.868;2022-07-17T02:29:17;2.40;;;1.63;;
15393;SDS011;7795;47.986;11.868;2022-07-17T02:31:44;2.37;;;1.67;;
15393;SDS011;7795;47.986;11.868;2022-07-17T02:34:10;1.90;;;1.70;;
15393;SDS011;7795;47.986;11.868;2022-07-17T02:36:36;3.10;;;1.80;;
15393;SDS011;7795;47.986;11.868;2022-07-17T02:39:02;2.53;;;1.70;;
15393;SDS011;7795;47.986;11.868;2022-07-17T02:41:28;2.90;;;1.70;;
15393;SDS011;7795;47.986;11.868;2022-07-17T02:43:54;2.53;;;1.57;;
15393;SDS011;7795;47.986;11.868;2022-07-17T02:46:19;1.77;;;1.50;;
15393;SDS011;7795;47.986;11.868;2022-07-17T02:48:46;1.87;;;1.63;;
15393;SDS011;7795;47.986;11.868;2022-07-17T02:51:12;2.13;;;1.73;;
15393;SDS011;7795;47.986;11.868;2022-07-17T02:53:38;1.60;;;1.40;;
15393;SDS011;7795;47.986;11.868;2022-07-17T02:56:04;2.30;;;1.40;;
15393;SDS011;7795;47.986;11.868;2022-07-17T02:58:30;1.70;;;1.53;;
15393;SDS011;7795;47.986;11.868;2022-07-17T03:00:56;1.67;;;1.57;;
15393;SDS011;7795;47.986;11.868;2022-07-17T03:03:22;1.60;;;1.50;;
15393;SDS011;7795;47.986;11.868;2022-07-17T03:05:49;1.50;;;1.40;;
15393;SDS011;7795;47.986;11.868;2022-07-17T03:08:15;1.50;;;1.40;;
15393;SDS011;7795;47.986;11.868;2022-07-17T03:10:41;1.33;;;1.23;;
15393;SDS011;7795;47.986;11.868;2022-07-17T03:13:07;2.97;;;1.50;;
15393;SDS011;7795;47.986;11.868;2022-07-17T03:15:33;1.90;;;1.50;;
15393;SDS011;7795;47.986;11.868;2022-07-17T03:17:58;1.93;;;1.60;;
15393;SDS011;7795;47.986;11.868;2022-07-17T03:20:24;2.00;;;1.80;;
15393;SDS011;7795;47.986;11.868;2022-07-17T03:22:51;2.23;;;2.00;;
15393;SDS011;7795;47.986;11.868;2022-07-17T03:25:17;1.83;;;1.60;;
15393;SDS011;7795;47.986;11.868;2022-07-17T03:27:43;1.40;;;1.30;;
15393;SDS011;7795;47.986;11.868;2022-07-17T03:30:10;2.10;;;1.50;;
15393;SDS011;7795;47.986;11.868;2022-07-17T03:32:35;2.80;;;1.77;;
15393;SDS011;7795;47.986;11.868;2022-07-17T03:35:01;1.70;;;1.60;;
15393;SDS011;7795;47.986;11.868;2022-07-17T03:37:27;2.23;;;1.40;;
15393;SDS011;7795;47.986;11.868;2022-07-17T03:39:55;2.27;;;1.40;;
15393;SDS011;7795;47.986;11.868;2022-07-17T03:42:21;1.83;;;1.50;;
15393;SDS011;7795;47.986;11.868;2022-07-17T03:44:46;1.57;;;1.47;;
15393;SDS011;7795;47.986;11.868;2022-07-17T03:47:12;1.83;;;1.33;;
15393;SDS011;7795;47.986;11.868;2022-07-17T03:49:38;2.53;;;1.70;;
15393;SDS011;7795;47.986;11.868;2022-07-17T03:52:04;1.57;;;1.47;;
15393;SDS011;7795;47.986;11.868;2022-07-17T03:54:30;1.70;;;1.60;;
15393;SDS011;7795;47.986;11.868;2022-07-17T03:56:57;2.03;;;1.60;;
15393;SDS011;7795;47.986;11.868;2022-07-17T03:59:24;1.80;;;1.60;;
15393;SDS011;7795;47.986;11.868;2022-07-17T04:01:49;2.37;;;1.73;;
15393;SDS011;7795;47.986;11.868;2022-07-17T04:04:15;2.77;;;1.87;;
15393;SDS011;7795;47.986;11.868;2022-07-17T04:06:41;2.50;;;1.87;;
15393;SDS011;7795;47.986;11.868;2022-07-17T04:09:07;2.33;;;2.07;;
15393;SDS011;7795;47.986;11.868;2022-07-17T04:11:32;2.73;;;2.17;;
15393;SDS011;7795;47.986;11.868;2022-07-17T04:14:00;4.77;;;2.60;;
15393;SDS011;7795;47.986;11.868;2022-07-17T04:16:25;3.43;;;2.60;;
15393;SDS011;7795;47.986;11.868;2022-07-17T04:18:51;3.77;;;2.90;;
15393;SDS011;7795;47.986;11.868;2022-07-17T04:21:18;4.20;;;2.40;;
15393;SDS011;7795;47.986;11.868;2022-07-17T04:23:44;3.57;;;2.47;;
15393;SDS011;7795;47.986;11.868;2022-07-17T04:26:10;2.40;;;1.63;;
15393;SDS011;7795;47.986;11.868;2022-07-17T04:28:36;3.50;;;2.50;;
15393;SDS011;7795;47.986;11.868;2022-07-17T04:31:03;2.87;;;2.10;;
15393;SDS011;7795;47.986;11.868;2022-07-17T04:33:29;3.87;;;2.63;;
15393;SDS011;7795;47.986;11.868;2022-07-17T04:35:55;3.90;;;2.13;;
15393;SDS011;7795;47.986;11.868;2022-07-17T04:38:20;2.37;;;2.17;;
15393;SDS011;7795;47.986;11.868;2022-07-17T04:40:46;2.03;;;1.80;;
15393;SDS011;7795;47.986;11.868;2022-07-17T04:43:12;1.47;;;1.20;;
15393;SDS011;7795;47.986;11.868;2022-07-17T04:45:38;1.93;;;1.83;;
15393;SDS011;7795;47.986;11.868;2022-07-17T04:48:05;2.37;;;1.80;;
15393;SDS011;7795;47.986;11.868;2022-07-17T04:50:31;2.87;;;1.70;;
15393;SDS011;7795;47.986;11.868;2022-07-17T04:52:58;2.90;;;1.70;;
15393;SDS011;7795;47.986;11.868;2022-07-17T04:55:25;1.70;;;1.57;;
15393;SDS011;7795;47.986;11.868;2022-07-17T04:57:51;1.87;;;1.70;;
15393;SDS011;7795;47.986;11.868;2022-07-17T05:00:17;2.43;;;1.83;;
15393;SDS011;7795;47.986;11.868;2022-07-17T05:02:42;1.83;;;1.67;;
15393;SDS011;7795;47.986;11.868;2022-07-17T05:05:10;2.13;;;1.90;;
15393;SDS011;7795;47.986;11.868;2022-07-17T05:07:35;1.70;;;1.60;;
15393;SDS011;7795;47.986;11.868;2022-07-17T05:10:01;2.43;;;1.90;;
15393;SDS011;7795;47.986;11.868;2022-07-17T05:12:29;1.57;;;1.47;;
15393;SDS011;7795;47.986;11.868;2022-07-17T05:14:54;1.90;;;1.70;;
15393;SDS011;7795;47.986;11.868;2022-07-17T05:17:20;1.80;;;1.63;;
15393;SDS011;7795;47.986;11.868;2022-07-17T05:19:46;2.17;;;1.80;;
15393;SDS011;7795;47.986;11.868;2022-07-17T05:22:13;2.23;;;1.87;;
15393;SDS011;7795;47.986;11.868;2022-07-17T05:24:39;2.43;;;2.17;;
15393;SDS011;7795;47.986;11.868;2022-07-17T05:27:04;1.60;;;1.50;;
15393;SDS011;7795;47.986;11.868;2022-07-17T05:29:30;1.70;;;1.40;;
15393;SDS011;7795;47.986;11.868;2022-07-17T05:31:56;1.40;;;1.30;;
15393;SDS011;7795;47.986;11.868;2022-07-17T05:34:22;2.20;;;1.57;;
15393;SDS011;7795;47.986;11.868;2022-07-17T05:36:47;5.60;;;1.50;;
15393;SDS011;7795;47.986;11.868;2022-07-17T05:39:15;2.93;;;2.17;;
15393;SDS011;7795;47.986;11.868;2022-07-17T05:41:41;3.03;;;1.70;;
15393;SDS011;7795;47.986;11.868;2022-07-17T05:44:07;2.10;;;1.50;;
15393;SDS011;7795;47.986;11.868;2022-07-17T05:46:33;2.23;;;1.40;;
15393;SDS011;7795;47.986;11.868;2022-07-17T05:48:59;2.30;;;1.30;;
15393;SDS011;7795;47.986;11.868;2022-07-17T05:51:24;1.50;;;1.40;;
15393;SDS011;7795;47.986;11.868;2022-07-17T05:53:50;3.13;;;1.43;;
15393;SDS011;7795;47.986;11.868;2022-07-17T05:56:17;1.80;;;1.70;;
15393;SDS011;7795;47.986;11.868;2022-07-17T05:58:43;2.30;;;1.67;;
15393;SDS011;7795;47.986;11.868;2022-07-17T06:01:09;1.80;;;1.33;;
15393;SDS011;7795;47.986;11.868;2022-07-17T06:03:34;1.30;;;1.20;;
15393;SDS011;7795;47.986;11.868;2022-07-17T06:06:00;1.43;;;1.27;;
15393;SDS011;7795;47.986;11.868;2022-07-17T06:08:26;3.40;;;1.77;;
15393;SDS011;7795;47.986;11.868;2022-07-17T06:10:52;2.30;;;1.43;;
15393;SDS011;7795;47.986;11.868;2022-07-17T06:13:19;1.50;;;1.37;;
15393;SDS011;7795;47.986;11.868;2022-07-17T06:15:44;1.83;;;1.33;;
15393;SDS011;7795;47.986;11.868;2022-07-17T06:18:10;3.17;;;1.87;;
15393;SDS011;7795;47.986;11.868;2022-07-17T06:20:36;3.13;;;1.60;;
15393;SDS011;7795;47.986;11.868;2022-07-17T06:23:02;2.20;;;1.83;;
15393;SDS011;7795;47.986;11.868;2022-07-17T06:25:28;2.67;;;1.83;;
15393;SDS011;7795;47.986;11.868;2022-07-17T06:27:54;2.93;;;1.43;;
15393;SDS011;7795;47.986;11.868;2022-07-17T06:30:21;1.87;;;1.50;;
15393;SDS011;7795;47.986;11.868;2022-07-17T06:32:46;1.60;;;1.37;;
15393;SDS011;7795;47.986;11.868;2022-07-17T06:35:12;1.60;;;1.27;;
15393;SDS011;7795;47.986;11.868;2022-07-17T06:37:38;3.27;;;2.00;;
15393;SDS011;7795;47.986;11.868;2022-07-17T06:40:04;2.10;;;1.40;;
15393;SDS011;7795;47.986;11.868;2022-07-17T06:42:31;2.13;;;1.47;;
15393;SDS011;7795;47.986;11.868;2022-07-17T06:44:56;4.70;;;1.40;;
15393;SDS011;7795;47.986;11.868;2022-07-17T06:47:24;4.63;;;2.00;;
15393;SDS011;7795;47.986;11.868;2022-07-17T06:49:49;2.57;;;1.40;;
15393;SDS011;7795;47.986;11.868;2022-07-17T06:52:15;4.37;;;2.00;;
15393;SDS011;7795;47.986;11.868;2022-07-17T06:54:41;1.90;;;1.57;;
15393;SDS011;7795;47.986;11.868;2022-07-17T06:57:07;2.43;;;1.53;;
15393;SDS011;7795;47.986;11.868;2022-07-17T06:59:33;2.63;;;1.53;;
15393;SDS011;7795;47.986;11.868;2022-07-17T07:01:59;1.87;;;1.20;;
15393;SDS011;7795;47.986;11.868;2022-07-17T07:04:26;3.13;;;1.60;;
15393;SDS011;7795;47.986;11.868;2022-07-17T07:06:52;1.90;;;1.60;;
15393;SDS011;7795;47.986;11.868;2022-07-17T07:09:18;3.13;;;1.50;;
15393;SDS011;7795;47.986;11.868;2022-07-17T07:11:43;2.00;;;1.67;;
15393;SDS011;7795;47.986;11.868;2022-07-17T07:14:09;2.50;;;1.70;;
15393;SDS011;7795;47.986;11.868;2022-07-17T07:16:35;1.97;;;1.50;;
15393;SDS011;7795;47.986;11.868;2022-07-17T07:19:01;1.60;;;1.37;;
15393;SDS011;7795;47.986;11.868;2022-07-17T07:21:28;1.80;;;1.53;;
15393;SDS011;7795;47.986;11.868;2022-07-17T07:23:54;1.77;;;1.30;;
15393;SDS011;7795;47.986;11.868;2022-07-17T07:26:20;1.53;;;1.40;;
15393;SDS011;7795;47.986;11.868;2022-07-17T07:28:46;2.60;;;1.70;;
15393;SDS011;7795;47.986;11.868;2022-07-17T07:31:12;2.90;;;1.87;;
15393;SDS011;7795;47.986;11.868;2022-07-17T07:33:37;2.40;;;1.70;;
15393;SDS011;7795;47.986;11.868;2022-07-17T07:36:04;2.67;;;1.50;;
15393;SDS011;7795;47.986;11.868;2022-07-17T07:38:31;3.50;;;1.50;;
15393;SDS011;7795;47.986;11.868;2022-07-17T07:40:58;1.90;;;1.70;;
15393;SDS011;7795;47.986;11.868;2022-07-17T07:43:23;2.20;;;1.63;;
15393;SDS011;7795;47.986;11.868;2022-07-17T07:45:49;2.80;;;1.63;;
15393;SDS011;7795;47.986;11.868;2022-07-17T07:48:15;2.63;;;1.40;;
15393;SDS011;7795;47.986;11.868;2022-07-17T07:50:41;1.60;;;1.50;;
15393;SDS011;7795;47.986;11.868;2022-07-17T07:53:07;2.93;;;1.50;;
15393;SDS011;7795;47.986;11.868;2022-07-17T07:55:34;3.20;;;1.67;;
15393;SDS011;7795;47.986;11.868;2022-07-17T07:58:01;1.73;;;1.30;;
15393;SDS011;7795;47.986;11.868;2022-07-17T08:00:27;4.03;;;1.93;;
15393;SDS011;7795;47.986;11.868;2022-07-17T08:02:53;4.57;;;1.50;;
15393;SDS011;7795;47.986;11.868;2022-07-17T08:05:18;2.13;;;1.60;;
15393;SDS011;7795;47.986;11.868;2022-07-17T08:07:44;3.80;;;1.67;;
15393;SDS011;7795;47.986;11.868;2022-07-17T08:10:10;2.93;;;1.50;;
15393;SDS011;7795;47.986;11.868;2022-07-17T08:12:37;1.83;;;1.30;;
15393;SDS011;7795;47.986;11.868;2022-07-17T08:15:03;3.83;;;1.60;;
15393;SDS011;7795;47.986;11.868;2022-07-17T08:17:29;2.73;;;1.70;;
15393;SDS011;7795;47.986;11.868;2022-07-17T08:19:55;2.30;;;1.53;;
15393;SDS011;7795;47.986;11.868;2022-07-17T08:22:21;1.60;;;1.37;;
15393;SDS011;7795;47.986;11.868;2022-07-17T08:24:47;1.97;;;1.30;;
15393;SDS011;7795;47.986;11.868;2022-07-17T08:27:12;1.70;;;1.33;;
15393;SDS011;7795;47.986;11.868;2022-07-17T08:29:39;3.17;;;1.50;;
15393;SDS011;7795;47.986;11.868;2022-07-17T08:32:05;2.70;;;2.10;;
15393;SDS011;7795;47.986;11.868;2022-07-17T08:34:31;2.10;;;1.30;;
15393;SDS011;7795;47.986;11.868;2022-07-17T08:36:57;2.23;;;1.37;;
15393;SDS011;7795;47.986;11.868;2022-07-17T08:39:22;2.27;;;1.20;;
15393;SDS011;7795;47.986;11.868;2022-07-17T08:41:48;1.93;;;1.50;;
15393;SDS011;7795;47.986;11.868;2022-07-17T08:44:14;3.20;;;1.70;;
15393;SDS011;7795;47.986;11.868;2022-07-17T08:46:41;1.87;;;1.13;;
15393;SDS011;7795;47.986;11.868;2022-07-17T08:49:07;2.30;;;1.50;;
15393;SDS011;7795;47.986;11.868;2022-07-17T08:51:34;2.53;;;1.23;;
15393;SDS011;7795;47.986;11.868;2022-07-17T08:53:59;1.80;;;1.67;;
15393;SDS011;7795;47.986;11.868;2022-07-17T08:56:26;3.97;;;1.60;;
15393;SDS011;7795;47.986;11.868;2022-07-17T08:58:52;2.30;;;1.50;;
15393;SDS011;7795;47.986;11.868;2022-07-17T09:01:18;2.50;;;1.73;;
15393;SDS011;7795;47.986;11.868;2022-07-17T09:03:55;2.37;;;1.47;;
15393;SDS011;7795;47.986;11.868;2022-07-17T09:06:22;1.73;;;1.30;;
15393;SDS011;7795;47.986;11.868;2022-07-17T09:08:58;1.93;;;1.27;;
15393;SDS011;7795;47.986;11.868;2022-07-17T09:11:26;1.75;;;1.42;;
15393;SDS011;7795;47.986;11.868;2022-07-17T09:13:52;1.77;;;1.33;;
15393;SDS011;7795;47.986;11.868;2022-07-17T09:16:18;3.33;;;1.90;;
15393;SDS011;7795;47.986;11.868;2022-07-17T09:18:44;1.20;;;1.10;;
15393;SDS011;7795;47.986;11.868;2022-07-17T09:21:17;3.13;;;1.47;;
15393;SDS011;7795;47.986;11.868;2022-07-17T09:23:44;1.52;;;1.30;;
15393;SDS011;7795;47.986;11.868;2022-07-17T09:26:09;1.85;;;1.30;;
15393;SDS011;7795;47.986;11.868;2022-07-17T09:28:43;2.63;;;1.30;;
15393;SDS011;7795;47.986;11.868;2022-07-17T09:31:09;1.87;;;1.27;;
15393;SDS011;7795;47.986;11.868;2022-07-17T09:33:35;1.77;;;1.10;;
15393;SDS011;7795;47.986;11.868;2022-07-17T09:36:06;4.10;;;1.35;;
15393;SDS011;7795;47.986;11.868;2022-07-17T09:38:35;1.33;;;1.10;;
15393;SDS011;7795;47.986;11.868;2022-07-17T09:41:03;1.77;;;1.35;;
15393;SDS011;7795;47.986;11.868;2022-07-17T09:43:37;1.30;;;1.20;;
15393;SDS011;7795;47.986;11.868;2022-07-17T09:46:09;1.70;;;1.40;;
15393;SDS011;7795;47.986;11.868;2022-07-17T09:48:40;1.75;;;1.40;;
15393;SDS011;7795;47.986;11.868;2022-07-17T09:51:12;1.48;;;1.38;;
15393;SDS011;7795;47.986;11.868;2022-07-17T09:53:41;1.63;;;1.15;;
15393;SDS011;7795;47.986;11.868;2022-07-17T09:56:11;2.05;;;1.42;;
15393;SDS011;7795;47.986;11.868;2022-07-17T09:58:39;1.88;;;1.40;;
15393;SDS011;7795;47.986;11.868;2022-07-17T10:01:08;1.65;;;1.55;;
15393;SDS011;7795;47.986;11.868;2022-07-17T10:03:34;1.88;;;1.55;;
15393;SDS011;7795;47.986;11.868;2022-07-17T10:06:00;3.40;;;1.80;;
15393;SDS011;7795;47.986;11.868;2022-07-17T10:08:27;6.10;;;2.17;;
15393;SDS011;7795;47.986;11.868;2022-07-17T10:10:55;2.03;;;1.13;;
15393;SDS011;7795;47.986;11.868;2022-07-17T10:13:21;1.52;;;1.25;;
15393;SDS011;7795;47.986;11.868;2022-07-17T10:15:47;4.18;;;1.60;;
15393;SDS011;7795;47.986;11.868;2022-07-17T10:18:14;1.30;;;1.20;;
15393;SDS011;7795;47.986;11.868;2022-07-17T10:20:40;1.50;;;1.10;;
15393;SDS011;7795;47.986;11.868;2022-07-17T10:23:11;2.65;;;1.70;;
15393;SDS011;7795;47.986;11.868;2022-07-17T10:25:37;2.03;;;1.40;;
15393;SDS011;7795;47.986;11.868;2022-07-17T10:28:05;1.67;;;1.50;;
15393;SDS011;7795;47.986;11.868;2022-07-17T10:30:32;2.40;;;1.40;;
15393;SDS011;7795;47.986;11.868;2022-07-17T10:33:00;2.88;;;1.00;;
15393;SDS011;7795;47.986;11.868;2022-07-17T10:35:40;1.42;;;1.30;;
15393;SDS011;7795;47.986;11.868;2022-07-17T10:38:09;1.33;;;1.23;;
15393;SDS011;7795;47.986;11.868;2022-07-17T10:40:38;2.08;;;1.10;;
15393;SDS011;7795;47.986;11.868;2022-07-17T10:43:06;2.13;;;1.50;;
15393;SDS011;7795;47.986;11.868;2022-07-17T10:45:33;1.90;;;1.38;;
15393;SDS011;7795;47.986;11.868;2022-07-17T10:48:04;2.10;;;1.20;;
15393;SDS011;7795;47.986;11.868;2022-07-17T10:50:33;1.98;;;1.30;;
15393;SDS011;7795;47.986;11.868;2022-07-17T10:53:11;1.67;;;1.20;;
15393;SDS011;7795;47.986;11.868;2022-07-17T10:55:42;1.77;;;1.30;;
15393;SDS011;7795;47.986;11.868;2022-07-17T10:58:16;2.05;;;1.50;;
15393;SDS011;7795;47.986;11.868;2022-07-17T11:00:44;2.35;;;1.10;;
15393;SDS011;7795;47.986;11.868;2022-07-17T11:03:31;1.70;;;1.35;;
15393;SDS011;7795;47.986;11.868;2022-07-17T11:06:09;1.35;;;1.25;;
15393;SDS011;7795;47.986;11.868;2022-07-17T11:08:40;1.95;;;1.50;;
15393;SDS011;7795;47.986;11.868;2022-07-17T11:11:10;2.33;;;1.10;;
15393;SDS011;7795;47.986;11.868;2022-07-17T11:13:37;1.38;;;1.15;;
15393;SDS011;7795;47.986;11.868;2022-07-17T11:16:03;1.70;;;1.10;;
15393;SDS011;7795;47.986;11.868;2022-07-17T11:18:29;1.80;;;0.98;;
15393;SDS011;7795;47.986;11.868;2022-07-17T11:20:56;3.05;;;1.10;;
15393;SDS011;7795;47.986;11.868;2022-07-17T11:23:25;1.92;;;1.40;;
15393;SDS011;7795;47.986;11.868;2022-07-17T11:25:53;3.50;;;1.10;;
15393;SDS011;7795;47.986;11.868;2022-07-17T11:28:31;1.48;;;1.10;;
15393;SDS011;7795;47.986;11.868;2022-07-17T11:31:04;1.88;;;1.13;;
15393;SDS011;7795;47.986;11.868;2022-07-17T11:33:45;3.65;;;1.35;;
15393;SDS011;7795;47.986;11.868;2022-07-17T11:36:25;1.80;;;1.30;;
15393;SDS011;7795;47.986;11.868;2022-07-17T11:38:53;2.90;;;1.00;;
15393;SDS011;7795;47.986;11.868;2022-07-17T11:41:20;2.13;;;1.00;;
15393;SDS011;7795;47.986;11.868;2022-07-17T11:43:46;1.73;;;1.30;;
15393;SDS011;7795;47.986;11.868;2022-07-17T11:46:14;2.22;;;1.08;;
15393;SDS011;7795;47.986;11.868;2022-07-17T11:48:41;1.67;;;1.10;;
15393;SDS011;7795;47.986;11.868;2022-07-17T11:51:07;2.20;;;1.08;;
15393;SDS011;7795;47.986;11.868;2022-07-17T11:53:34;1.73;;;1.25;;
15393;SDS011;7795;47.986;11.868;2022-07-17T11:56:02;1.85;;;1.33;;
15393;SDS011;7795;47.986;11.868;2022-07-17T11:58:28;2.75;;;1.33;;
15393;SDS011;7795;47.986;11.868;2022-07-17T12:01:06;2.25;;;1.20;;
15393;SDS011;7795;47.986;11.868;2022-07-17T12:03:33;2.42;;;1.08;;
15393;SDS011;7795;47.986;11.868;2022-07-17T12:05:59;1.13;;;1.02;;
15393;SDS011;7795;47.986;11.868;2022-07-17T12:08:24;2.28;;;1.42;;
15393;SDS011;7795;47.986;11.868;2022-07-17T12:10:59;1.77;;;1.33;;
15393;SDS011;7795;47.986;11.868;2022-07-17T12:13:39;2.75;;;0.98;;
15393;SDS011;7795;47.986;11.868;2022-07-17T12:16:22;1.77;;;1.35;;
15393;SDS011;7795;47.986;11.868;2022-07-17T12:19:02;1.10;;;1.00;;
15393;SDS011;7795;47.986;11.868;2022-07-17T12:21:31;2.05;;;1.00;;
15393;SDS011;7795;47.986;11.868;2022-07-17T12:23:58;2.75;;;0.88;;
15393;SDS011;7795;47.986;11.868;2022-07-17T12:26:27;4.80;;;2.55;;
15393;SDS011;7795;47.986;11.868;2022-07-17T12:28:53;1.55;;;1.30;;
15393;SDS011;7795;47.986;11.868;2022-07-17T12:31:19;1.83;;;1.48;;
15393;SDS011;7795;47.986;11.868;2022-07-17T12:33:46;1.40;;;1.20;;
15393;SDS011;7795;47.986;11.868;2022-07-17T12:36:13;2.58;;;1.20;;
15393;SDS011;7795;47.986;11.868;2022-07-17T12:38:39;2.95;;;1.42;;
15393;SDS011;7795;47.986;11.868;2022-07-17T12:41:05;1.30;;;1.10;;
15393;SDS011;7795;47.986;11.868;2022-07-17T12:43:31;1.13;;;0.98;;
15393;SDS011;7795;47.986;11.868;2022-07-17T12:45:57;1.88;;;1.00;;
15393;SDS011;7795;47.986;11.868;2022-07-17T12:48:22;1.00;;;0.90;;
15393;SDS011;7795;47.986;11.868;2022-07-17T12:50:48;2.30;;;1.20;;
15393;SDS011;7795;47.986;11.868;2022-07-17T12:53:15;1.48;;;0.98;;
15393;SDS011;7795;47.986;11.868;2022-07-17T12:55:41;2.05;;;0.98;;
15393;SDS011;7795;47.986;11.868;2022-07-17T12:58:07;1.80;;;1.25;;
15393;SDS011;7795;47.986;11.868;2022-07-17T13:00:32;1.38;;;1.10;;
15393;SDS011;7795;47.986;11.868;2022-07-17T13:02:58;1.40;;;0.90;;
15393;SDS011;7795;47.986;11.868;2022-07-17T13:05:26;1.60;;;1.13;;
15393;SDS011;7795;47.986;11.868;2022-07-17T13:07:52;1.13;;;1.02;;
15393;SDS011;7795;47.986;11.868;2022-07-17T13:10:19;1.23;;;1.10;;
15393;SDS011;7795;47.986;11.868;2022-07-17T13:12:45;1.50;;;1.13;;
15393;SDS011;7795;47.986;11.868;2022-07-17T13:15:10;1.10;;;1.00;;
15393;SDS011;7795;47.986;11.868;2022-07-17T13:17:36;2.50;;;0.82;;
15393;SDS011;7795;47.986;11.868;2022-07-17T13:20:02;2.40;;;1.08;;
15393;SDS011;7795;47.986;11.868;2022-07-17T13:22:29;1.45;;;0.85;;
15393;SDS011;7795;47.986;11.868;2022-07-17T13:24:55;0.95;;;0.85;;
15393;SDS011;7795;47.986;11.868;2022-07-17T13:27:22;1.73;;;1.20;;
15393;SDS011;7795;47.986;11.868;2022-07-17T13:29:48;1.10;;;0.95;;
15393;SDS011;7795;47.986;11.868;2022-07-17T13:32:13;1.25;;;0.98;;
15393;SDS011;7795;47.986;11.868;2022-07-17T13:34:39;1.10;;;1.00;;
15393;SDS011;7795;47.986;11.868;2022-07-17T13:37:05;2.75;;;0.90;;
15393;SDS011;7795;47.986;11.868;2022-07-17T13:39:33;1.65;;;1.00;;
15393;SDS011;7795;47.986;11.868;2022-07-17T13:41:59;1.80;;;1.15;;
15393;SDS011;7795;47.986;11.868;2022-07-17T13:44:26;1.25;;;0.98;;
15393;SDS011;7795;47.986;11.868;2022-07-17T13:46:52;2.38;;;1.30;;
15393;SDS011;7795;47.986;11.868;2022-07-17T13:49:17;1.30;;;1.20;;
15393;SDS011;7795;47.986;11.868;2022-07-17T13:51:43;2.15;;;1.30;;
15393;SDS011;7795;47.986;11.868;2022-07-17T13:54:09;1.85;;;1.00;;
15393;SDS011;7795;47.986;11.868;2022-07-17T13:56:34;1.38;;;1.17;;
15393;SDS011;7795;47.986;11.868;2022-07-17T13:59:00;2.25;;;1.20;;
15393;SDS011;7795;47.986;11.868;2022-07-17T14:01:27;1.73;;;1.27;;
15393;SDS011;7795;47.986;11.868;2022-07-17T14:03:53;1.63;;;1.10;;
15393;SDS011;7795;47.986;11.868;2022-07-17T14:06:19;3.03;;;1.08;;
15393;SDS011;7795;47.986;11.868;2022-07-17T14:08:45;1.77;;;1.20;;
15393;SDS011;7795;47.986;11.868;2022-07-17T14:11:11;1.45;;;1.08;;
15393;SDS011;7795;47.986;11.868;2022-07-17T14:13:37;1.15;;;1.00;;
15393;SDS011;7795;47.986;11.868;2022-07-17T14:16:04;1.65;;;1.25;;
15393;SDS011;7795;47.986;11.868;2022-07-17T14:18:31;0.93;;;0.90;;
15393;SDS011;7795;47.986;11.868;2022-07-17T14:20:57;0.90;;;0.80;;
15393;SDS011;7795;47.986;11.868;2022-07-17T14:23:22;2.28;;;1.35;;
15393;SDS011;7795;47.986;11.868;2022-07-17T14:25:48;2.00;;;1.00;;
15393;SDS011;7795;47.986;11.868;2022-07-17T14:28:14;1.30;;;1.00;;
15393;SDS011;7795;47.986;11.868;2022-07-17T14:30:40;1.38;;;1.13;;
15393;SDS011;7795;47.986;11.868;2022-07-17T14:33:06;2.03;;;1.08;;
15393;SDS011;7795;47.986;11.868;2022-07-17T14:35:33;1.83;;;1.20;;
15393;SDS011;7795;47.986;11.868;2022-07-17T14:37:59;3.33;;;1.30;;
15393;SDS011;7795;47.986;11.868;2022-07-17T14:40:25;2.03;;;0.95;;
15393;SDS011;7795;47.986;11.868;2022-07-17T14:42:51;2.40;;;1.10;;
15393;SDS011;7795;47.986;11.868;2022-07-17T14:45:17;1.67;;;0.98;;